sensor_id;sensor_type;location;lat;lon;timestamp;temperature;humidity
39519;DHT22;25200;53.394;10.414;2022-09-01T00:01:43;17.20;54.70
39519;DHT22;25200;53.394;10.414;2022-09-01T00:04:12;17.20;54.90
39519;DHT22;25200;53.394;10.414;2022-09-01T00:06:39;17.20;54.70
39519;DHT22;25200;53.394;10.414;2022-09-01T00:09:12;17.20;54.90
39519;DHT22;25200;53.394;10.414;2022-09-01T00:11:39;17.20;54.80
39519;DHT22;25200;53.394;10.414;2022-09-01T00:14:06;17.20;54.90
39519;DHT22;25200;53.394;10.414;2022-09-01T00:16:32;17.20;54.90
39519;DHT22;25200;53.394;10.414;2022-09-01T00:18:58;17.20;54.80
39519;DHT22;25200;53.394;10.414;2022-09-01T00:21:27;17.20;54.90
39519;DHT22;25200;53.394;10.414;2022-09-01T00:23:53;17.20;55.00
39519;DHT22;25200;53.394;10.414;2022-09-01T00:26:19;17.10;54.90
39519;DHT22;25200;53.394;10.414;2022-09-01T00:28:45;17.10;55.10
39519;DHT22;25200;53.394;10.414;2022-09-01T00:31:11;17.10;55.30
39519;DHT22;25200;53.394;10.414;2022-09-01T00:33:39;17.10;55.10
39519;DHT22;25200;53.394;10.414;2022-09-01T00:36:05;17.10;55.40
39519;DHT22;25200;53.394;10.414;2022-09-01T00:38:32;17.10;55.90
39519;DHT22;25200;53.394;10.414;2022-09-01T00:40:58;17.10;55.30
39519;DHT22;25200;53.394;10.414;2022-09-01T00:43:39;17.10;55.30
39519;DHT22;25200;53.394;10.414;2022-09-01T00:46:11;17.10;55.60
39519;DHT22;25200;53.394;10.414;2022-09-01T00:48:38;17.10;55.60
39519;DHT22;25200;53.394;10.414;2022-09-01T00:51:05;17.10;55.60
39519;DHT22;25200;53.394;10.414;2022-09-01T00:53:32;17.10;55.50
39519;DHT22;25200;53.394;10.414;2022-09-01T00:55:58;17.00;55.60
39519;DHT22;25200;53.394;10.414;2022-09-01T00:58:25;17.00;55.60
39519;DHT22;25200;53.394;10.414;2022-09-01T01:00:52;16.90;55.50
39519;DHT22;25200;53.394;10.414;2022-09-01T01:03:18;16.90;55.70
39519;DHT22;25200;53.394;10.414;2022-09-01T01:05:48;16.90;55.80
39519;DHT22;25200;53.394;10.414;2022-09-01T01:08:22;16.90;56.00
39519;DHT22;25200;53.394;10.414;2022-09-01T01:10:55;16.90;55.80
39519;DHT22;25200;53.394;10.414;2022-09-01T01:13:21;16.90;55.60
39519;DHT22;25200;53.394;10.414;2022-09-01T01:15:50;16.80;55.90
39519;DHT22;25200;53.394;10.414;2022-09-01T01:18:17;16.80;56.00
39519;DHT22;25200;53.394;10.414;2022-09-01T01:20:43;16.90;56.00
39519;DHT22;25200;53.394;10.414;2022-09-01T01:26:02;16.80;56.20
39519;DHT22;25200;53.394;10.414;2022-09-01T01:28:30;16.80;55.90
39519;DHT22;25200;53.394;10.414;2022-09-01T01:33:25;16.80;55.90
39519;DHT22;25200;53.394;10.414;2022-09-01T01:35:52;16.80;56.10
39519;DHT22;25200;53.394;10.414;2022-09-01T01:38:20;16.80;56.20
39519;DHT22;25200;53.394;10.414;2022-09-01T01:40:47;16.80;56.30
39519;DHT22;25200;53.394;10.414;2022-09-01T01:43:13;16.80;56.30
39519;DHT22;25200;53.394;10.414;2022-09-01T01:45:51;16.80;56.10
39519;DHT22;25200;53.394;10.414;2022-09-01T01:48:19;16.80;56.60
39519;DHT22;25200;53.394;10.414;2022-09-01T01:50:49;16.70;56.30
39519;DHT22;25200;53.394;10.414;2022-09-01T01:53:15;16.80;56.20
39519;DHT22;25200;53.394;10.414;2022-09-01T01:55:44;16.80;56.70
39519;DHT22;25200;53.394;10.414;2022-09-01T01:58:11;16.80;56.70
39519;DHT22;25200;53.394;10.414;2022-09-01T02:00:37;16.80;56.60
39519;DHT22;25200;53.394;10.414;2022-09-01T02:03:04;16.80;56.60
39519;DHT22;25200;53.394;10.414;2022-09-01T02:05:34;16.80;56.90
39519;DHT22;25200;53.394;10.414;2022-09-01T02:08:05;16.80;56.50
39519;DHT22;25200;53.394;10.414;2022-09-01T02:10:34;16.80;56.70
39519;DHT22;25200;53.394;10.414;2022-09-01T02:13:03;16.80;56.60
39519;DHT22;25200;53.394;10.414;2022-09-01T02:15:33;16.80;56.70
39519;DHT22;25200;53.394;10.414;2022-09-01T02:18:00;16.80;56.60
39519;DHT22;25200;53.394;10.414;2022-09-01T02:20:27;16.80;56.50
39519;DHT22;25200;53.394;10.414;2022-09-01T02:22:57;16.70;56.50
39519;DHT22;25200;53.394;10.414;2022-09-01T02:25:23;16.70;56.50
39519;DHT22;25200;53.394;10.414;2022-09-01T02:27:49;16.70;56.70
39519;DHT22;25200;53.394;10.414;2022-09-01T02:30:20;16.70;56.80
39519;DHT22;25200;53.394;10.414;2022-09-01T02:32:47;16.60;56.70
39519;DHT22;25200;53.394;10.414;2022-09-01T02:35:12;16.60;57.00
39519;DHT22;25200;53.394;10.414;2022-09-01T02:37:39;16.60;56.80
39519;DHT22;25200;53.394;10.414;2022-09-01T02:40:07;16.60;57.20
39519;DHT22;25200;53.394;10.414;2022-09-01T02:42:36;16.60;56.90
39519;DHT22;25200;53.394;10.414;2022-09-01T02:45:05;16.60;57.10
39519;DHT22;25200;53.394;10.414;2022-09-01T02:47:41;16.50;57.00
39519;DHT22;25200;53.394;10.414;2022-09-01T02:50:09;16.50;56.90
39519;DHT22;25200;53.394;10.414;2022-09-01T02:52:38;16.40;57.20
39519;DHT22;25200;53.394;10.414;2022-09-01T02:55:06;16.40;57.00
39519;DHT22;25200;53.394;10.414;2022-09-01T02:57:32;16.40;57.00
39519;DHT22;25200;53.394;10.414;2022-09-01T02:59:59;16.40;57.00
39519;DHT22;25200;53.394;10.414;2022-09-01T03:02:25;16.40;57.10
39519;DHT22;25200;53.394;10.414;2022-09-01T03:04:54;16.40;57.30
39519;DHT22;25200;53.394;10.414;2022-09-01T03:07:20;16.40;57.30
39519;DHT22;25200;53.394;10.414;2022-09-01T03:09:48;16.40;57.00
39519;DHT22;25200;53.394;10.414;2022-09-01T03:12:14;16.40;57.30
39519;DHT22;25200;53.394;10.414;2022-09-01T03:14:40;16.40;57.30
39519;DHT22;25200;53.394;10.414;2022-09-01T03:17:06;16.40;57.30
39519;DHT22;25200;53.394;10.414;2022-09-01T03:19:31;16.40;57.30
39519;DHT22;25200;53.394;10.414;2022-09-01T03:22:08;16.40;57.30
39519;DHT22;25200;53.394;10.414;2022-09-01T03:24:34;16.40;57.40
39519;DHT22;25200;53.394;10.414;2022-09-01T03:27:00;16.40;57.70
39519;DHT22;25200;53.394;10.414;2022-09-01T03:29:26;16.40;57.60
39519;DHT22;25200;53.394;10.414;2022-09-01T03:31:51;16.40;57.50
39519;DHT22;25200;53.394;10.414;2022-09-01T03:34:17;16.40;57.70
39519;DHT22;25200;53.394;10.414;2022-09-01T03:36:46;16.30;57.70
39519;DHT22;25200;53.394;10.414;2022-09-01T03:39:17;16.30;57.60
39519;DHT22;25200;53.394;10.414;2022-09-01T03:41:43;16.30;57.90
39519;DHT22;25200;53.394;10.414;2022-09-01T03:44:09;16.30;57.60
39519;DHT22;25200;53.394;10.414;2022-09-01T03:46:38;16.20;57.70
39519;DHT22;25200;53.394;10.414;2022-09-01T03:49:05;16.20;57.70
39519;DHT22;25200;53.394;10.414;2022-09-01T03:51:32;16.20;57.90
39519;DHT22;25200;53.394;10.414;2022-09-01T03:53:58;16.20;57.80
39519;DHT22;25200;53.394;10.414;2022-09-01T03:56:28;16.20;57.90
39519;DHT22;25200;53.394;10.414;2022-09-01T03:58:57;16.20;57.70
39519;DHT22;25200;53.394;10.414;2022-09-01T04:01:27;16.10;58.00
39519;DHT22;25200;53.394;10.414;2022-09-01T04:03:54;16.10;58.00
39519;DHT22;25200;53.394;10.414;2022-09-01T04:06:20;16.10;57.80
39519;DHT22;25200;53.394;10.414;2022-09-01T04:08:48;16.10;58.00
39519;DHT22;25200;53.394;10.414;2022-09-01T04:11:18;16.10;58.10
39519;DHT22;25200;53.394;10.414;2022-09-01T04:13:48;16.00;58.10
39519;DHT22;25200;53.394;10.414;2022-09-01T04:16:26;16.00;58.00
39519;DHT22;25200;53.394;10.414;2022-09-01T04:19:13;16.00;58.30
39519;DHT22;25200;53.394;10.414;2022-09-01T04:21:51;16.00;58.20
39519;DHT22;25200;53.394;10.414;2022-09-01T04:24:21;16.00;58.30
39519;DHT22;25200;53.394;10.414;2022-09-01T04:26:53;15.90;58.30
39519;DHT22;25200;53.394;10.414;2022-09-01T04:29:20;15.90;58.20
39519;DHT22;25200;53.394;10.414;2022-09-01T04:31:52;15.90;58.10
39519;DHT22;25200;53.394;10.414;2022-09-01T04:34:22;15.80;58.20
39519;DHT22;25200;53.394;10.414;2022-09-01T04:36:49;15.80;58.20
39519;DHT22;25200;53.394;10.414;2022-09-01T04:39:18;15.80;58.40
39519;DHT22;25200;53.394;10.414;2022-09-01T04:41:45;15.70;58.90
39519;DHT22;25200;53.394;10.414;2022-09-01T04:44:12;15.70;58.70
39519;DHT22;25200;53.394;10.414;2022-09-01T04:46:42;15.60;58.90
39519;DHT22;25200;53.394;10.414;2022-09-01T04:49:11;15.60;58.60
39519;DHT22;25200;53.394;10.414;2022-09-01T04:51:42;15.50;58.80
39519;DHT22;25200;53.394;10.414;2022-09-01T04:54:08;15.50;59.20
39519;DHT22;25200;53.394;10.414;2022-09-01T04:56:37;15.50;58.90
39519;DHT22;25200;53.394;10.414;2022-09-01T04:59:03;15.50;59.10
39519;DHT22;25200;53.394;10.414;2022-09-01T05:01:31;15.50;59.10
39519;DHT22;25200;53.394;10.414;2022-09-01T05:04:08;15.50;58.90
39519;DHT22;25200;53.394;10.414;2022-09-01T05:06:34;15.50;58.80
39519;DHT22;25200;53.394;10.414;2022-09-01T05:09:04;15.50;58.70
39519;DHT22;25200;53.394;10.414;2022-09-01T05:11:30;15.50;58.80
39519;DHT22;25200;53.394;10.414;2022-09-01T05:13:57;15.50;59.00
39519;DHT22;25200;53.394;10.414;2022-09-01T05:16:23;15.50;59.20
39519;DHT22;25200;53.394;10.414;2022-09-01T05:18:52;15.50;59.30
39519;DHT22;25200;53.394;10.414;2022-09-01T05:21:21;15.40;59.10
39519;DHT22;25200;53.394;10.414;2022-09-01T05:23:49;15.50;59.30
39519;DHT22;25200;53.394;10.414;2022-09-01T05:26:25;15.50;58.70
39519;DHT22;25200;53.394;10.414;2022-09-01T05:28:53;15.50;59.20
39519;DHT22;25200;53.394;10.414;2022-09-01T05:31:21;15.50;58.80
39519;DHT22;25200;53.394;10.414;2022-09-01T05:33:48;15.50;59.30
39519;DHT22;25200;53.394;10.414;2022-09-01T05:36:22;15.50;58.80
39519;DHT22;25200;53.394;10.414;2022-09-01T05:38:48;15.50;59.10
39519;DHT22;25200;53.394;10.414;2022-09-01T05:41:17;15.50;59.00
39519;DHT22;25200;53.394;10.414;2022-09-01T05:43:47;15.50;59.20
39519;DHT22;25200;53.394;10.414;2022-09-01T05:46:25;15.50;59.60
39519;DHT22;25200;53.394;10.414;2022-09-01T05:48:53;15.50;59.10
39519;DHT22;25200;53.394;10.414;2022-09-01T05:51:22;15.50;58.80
39519;DHT22;25200;53.394;10.414;2022-09-01T05:53:51;15.50;59.50
39519;DHT22;25200;53.394;10.414;2022-09-01T05:56:20;15.50;59.60
39519;DHT22;25200;53.394;10.414;2022-09-01T05:58:48;15.50;59.20
39519;DHT22;25200;53.394;10.414;2022-09-01T06:01:19;15.50;59.40
39519;DHT22;25200;53.394;10.414;2022-09-01T06:03:48;15.50;59.60
39519;DHT22;25200;53.394;10.414;2022-09-01T06:06:15;15.50;59.40
39519;DHT22;25200;53.394;10.414;2022-09-01T06:08:41;15.60;59.50
39519;DHT22;25200;53.394;10.414;2022-09-01T06:11:08;15.60;59.20
39519;DHT22;25200;53.394;10.414;2022-09-01T06:13:39;15.60;59.10
39519;DHT22;25200;53.394;10.414;2022-09-01T06:16:07;15.60;59.20
39519;DHT22;25200;53.394;10.414;2022-09-01T06:18:35;15.70;58.90
39519;DHT22;25200;53.394;10.414;2022-09-01T06:21:03;15.70;59.10
39519;DHT22;25200;53.394;10.414;2022-09-01T06:23:29;15.70;59.10
39519;DHT22;25200;53.394;10.414;2022-09-01T06:25:56;15.70;59.30
39519;DHT22;25200;53.394;10.414;2022-09-01T06:28:21;15.70;59.20
39519;DHT22;25200;53.394;10.414;2022-09-01T06:30:48;15.70;58.90
39519;DHT22;25200;53.394;10.414;2022-09-01T06:33:15;15.70;59.00
39519;DHT22;25200;53.394;10.414;2022-09-01T06:35:42;15.80;59.00
39519;DHT22;25200;53.394;10.414;2022-09-01T06:38:11;15.80;59.20
39519;DHT22;25200;53.394;10.414;2022-09-01T06:40:37;15.80;58.90
39519;DHT22;25200;53.394;10.414;2022-09-01T06:43:05;15.80;59.40
39519;DHT22;25200;53.394;10.414;2022-09-01T06:45:40;15.90;59.80
39519;DHT22;25200;53.394;10.414;2022-09-01T06:48:06;15.90;59.50
39519;DHT22;25200;53.394;10.414;2022-09-01T06:50:32;15.90;59.30
39519;DHT22;25200;53.394;10.414;2022-09-01T06:52:58;15.90;59.30
39519;DHT22;25200;53.394;10.414;2022-09-01T06:55:39;15.90;59.50
39519;DHT22;25200;53.394;10.414;2022-09-01T06:58:09;16.00;59.40
39519;DHT22;25200;53.394;10.414;2022-09-01T07:00:37;15.90;59.10
39519;DHT22;25200;53.394;10.414;2022-09-01T07:03:11;16.00;59.10
39519;DHT22;25200;53.394;10.414;2022-09-01T07:05:42;16.10;59.20
39519;DHT22;25200;53.394;10.414;2022-09-01T07:08:10;16.10;59.30
39519;DHT22;25200;53.394;10.414;2022-09-01T07:10:43;16.10;59.10
39519;DHT22;25200;53.394;10.414;2022-09-01T07:13:13;16.20;59.20
39519;DHT22;25200;53.394;10.414;2022-09-01T07:15:46;16.20;59.40
39519;DHT22;25200;53.394;10.414;2022-09-01T07:18:25;16.20;59.10
39519;DHT22;25200;53.394;10.414;2022-09-01T07:20:52;16.30;59.00
39519;DHT22;25200;53.394;10.414;2022-09-01T07:23:19;16.30;59.30
39519;DHT22;25200;53.394;10.414;2022-09-01T07:25:47;16.30;59.20
39519;DHT22;25200;53.394;10.414;2022-09-01T07:28:14;16.40;59.10
39519;DHT22;25200;53.394;10.414;2022-09-01T07:30:43;16.40;58.80
39519;DHT22;25200;53.394;10.414;2022-09-01T07:33:10;16.50;59.10
39519;DHT22;25200;53.394;10.414;2022-09-01T07:35:39;16.50;58.80
39519;DHT22;25200;53.394;10.414;2022-09-01T07:38:05;16.50;58.80
39519;DHT22;25200;53.394;10.414;2022-09-01T07:40:38;16.60;58.80
39519;DHT22;25200;53.394;10.414;2022-09-01T07:43:06;16.60;58.70
39519;DHT22;25200;53.394;10.414;2022-09-01T07:45:34;16.60;59.00
39519;DHT22;25200;53.394;10.414;2022-09-01T07:48:04;16.70;58.60
39519;DHT22;25200;53.394;10.414;2022-09-01T07:50:35;16.70;58.60
39519;DHT22;25200;53.394;10.414;2022-09-01T07:53:02;16.70;58.50
39519;DHT22;25200;53.394;10.414;2022-09-01T07:55:29;16.80;58.60
39519;DHT22;25200;53.394;10.414;2022-09-01T07:57:56;16.80;58.60
39519;DHT22;25200;53.394;10.414;2022-09-01T08:00:24;16.80;58.40
39519;DHT22;25200;53.394;10.414;2022-09-01T08:02:49;16.90;58.50
39519;DHT22;25200;53.394;10.414;2022-09-01T08:05:17;16.90;58.40
39519;DHT22;25200;53.394;10.414;2022-09-01T08:07:47;17.00;58.40
39519;DHT22;25200;53.394;10.414;2022-09-01T08:10:14;17.00;58.50
39519;DHT22;25200;53.394;10.414;2022-09-01T08:12:40;17.10;58.30
39519;DHT22;25200;53.394;10.414;2022-09-01T08:15:08;17.10;58.20
39519;DHT22;25200;53.394;10.414;2022-09-01T08:17:36;17.20;58.30
39519;DHT22;25200;53.394;10.414;2022-09-01T08:20:02;17.20;58.30
39519;DHT22;25200;53.394;10.414;2022-09-01T08:22:28;17.20;58.10
39519;DHT22;25200;53.394;10.414;2022-09-01T08:24:53;17.30;58.10
39519;DHT22;25200;53.394;10.414;2022-09-01T08:27:19;17.30;58.00
39519;DHT22;25200;53.394;10.414;2022-09-01T08:29:45;17.40;57.90
39519;DHT22;25200;53.394;10.414;2022-09-01T08:32:11;17.50;58.10
39519;DHT22;25200;53.394;10.414;2022-09-01T08:34:37;17.50;58.30
39519;DHT22;25200;53.394;10.414;2022-09-01T08:37:04;17.60;58.10
39519;DHT22;25200;53.394;10.414;2022-09-01T08:39:30;17.60;58.00
39519;DHT22;25200;53.394;10.414;2022-09-01T08:45:06;17.80;57.80
39519;DHT22;25200;53.394;10.414;2022-09-01T08:47:35;17.80;57.90
39519;DHT22;25200;53.394;10.414;2022-09-01T08:50:01;17.80;57.80
39519;DHT22;25200;53.394;10.414;2022-09-01T08:52:36;17.90;57.80
39519;DHT22;25200;53.394;10.414;2022-09-01T08:55:35;18.00;57.90
39519;DHT22;25200;53.394;10.414;2022-09-01T08:58:04;18.10;57.50
39519;DHT22;25200;53.394;10.414;2022-09-01T09:00:38;18.20;57.40
39519;DHT22;25200;53.394;10.414;2022-09-01T09:11:01;18.60;57.20
39519;DHT22;25200;53.394;10.414;2022-09-01T09:16:47;19.00;57.00
39519;DHT22;25200;53.394;10.414;2022-09-01T09:22:07;19.50;56.80
39519;DHT22;25200;53.394;10.414;2022-09-01T09:29:53;20.20;56.20
39519;DHT22;25200;53.394;10.414;2022-09-01T09:32:21;20.50;56.00
39519;DHT22;25200;53.394;10.414;2022-09-01T09:34:48;20.80;55.80
39519;DHT22;25200;53.394;10.414;2022-09-01T09:37:24;21.00;55.50
39519;DHT22;25200;53.394;10.414;2022-09-01T09:42:39;21.70;55.20
39519;DHT22;25200;53.394;10.414;2022-09-01T09:45:20;22.00;55.50
39519;DHT22;25200;53.394;10.414;2022-09-01T09:47:46;22.30;54.70
39519;DHT22;25200;53.394;10.414;2022-09-01T09:50:28;22.50;54.00
39519;DHT22;25200;53.394;10.414;2022-09-01T09:56:15;22.80;53.20
39519;DHT22;25200;53.394;10.414;2022-09-01T09:58:46;23.10;53.10
39519;DHT22;25200;53.394;10.414;2022-09-01T10:01:29;23.10;50.70
39519;DHT22;25200;53.394;10.414;2022-09-01T10:04:00;23.30;51.80
39519;DHT22;25200;53.394;10.414;2022-09-01T10:06:43;23.30;50.90
39519;DHT22;25200;53.394;10.414;2022-09-01T10:09:32;23.50;51.50
39519;DHT22;25200;53.394;10.414;2022-09-01T10:11:58;23.60;51.80
39519;DHT22;25200;53.394;10.414;2022-09-01T10:14:40;23.90;52.50
39519;DHT22;25200;53.394;10.414;2022-09-01T10:17:17;24.20;52.60
39519;DHT22;25200;53.394;10.414;2022-09-01T10:19:58;24.50;51.70
39519;DHT22;25200;53.394;10.414;2022-09-01T10:22:27;24.70;52.30
39519;DHT22;25200;53.394;10.414;2022-09-01T10:24:53;24.90;50.30
39519;DHT22;25200;53.394;10.414;2022-09-01T10:27:22;25.10;51.10
39519;DHT22;25200;53.394;10.414;2022-09-01T10:29:53;25.30;51.00
39519;DHT22;25200;53.394;10.414;2022-09-01T10:32:25;25.60;50.10
39519;DHT22;25200;53.394;10.414;2022-09-01T10:34:53;25.90;50.60
39519;DHT22;25200;53.394;10.414;2022-09-01T10:37:19;26.10;50.40
39519;DHT22;25200;53.394;10.414;2022-09-01T10:40:33;26.30;50.40
39519;DHT22;25200;53.394;10.414;2022-09-01T10:43:24;26.60;50.30
39519;DHT22;25200;53.394;10.414;2022-09-01T10:45:51;27.00;50.00
39519;DHT22;25200;53.394;10.414;2022-09-01T10:48:21;27.20;49.50
39519;DHT22;25200;53.394;10.414;2022-09-01T10:53:46;27.60;48.80
39519;DHT22;25200;53.394;10.414;2022-09-01T10:59:24;28.20;49.70
39519;DHT22;25200;53.394;10.414;2022-09-01T11:04:17;28.70;49.30
39519;DHT22;25200;53.394;10.414;2022-09-01T11:07:03;29.00;49.50
39519;DHT22;25200;53.394;10.414;2022-09-01T11:15:34;29.60;47.70
39519;DHT22;25200;53.394;10.414;2022-09-01T11:18:00;29.70;47.70
39519;DHT22;25200;53.394;10.414;2022-09-01T11:20:36;29.70;48.00
39519;DHT22;25200;53.394;10.414;2022-09-01T11:23:24;29.70;47.20
39519;DHT22;25200;53.394;10.414;2022-09-01T11:25:57;29.80;47.20
39519;DHT22;25200;53.394;10.414;2022-09-01T11:36:44;30.50;48.50
39519;DHT22;25200;53.394;10.414;2022-09-01T11:39:40;30.60;48.80
39519;DHT22;25200;53.394;10.414;2022-09-01T11:44:40;29.90;46.10
39519;DHT22;25200;53.394;10.414;2022-09-01T11:47:12;29.40;46.00
39519;DHT22;25200;53.394;10.414;2022-09-01T11:49:59;28.90;45.00
39519;DHT22;25200;53.394;10.414;2022-09-01T11:52:28;28.50;44.90
39519;DHT22;25200;53.394;10.414;2022-09-01T11:54:56;28.00;44.30
39519;DHT22;25200;53.394;10.414;2022-09-01T11:57:42;27.60;44.70
39519;DHT22;25200;53.394;10.414;2022-09-01T12:00:13;27.10;44.90
39519;DHT22;25200;53.394;10.414;2022-09-01T12:02:51;26.80;45.20
39519;DHT22;25200;53.394;10.414;2022-09-01T12:05:45;26.50;45.10
39519;DHT22;25200;53.394;10.414;2022-09-01T12:08:18;26.60;46.40
39519;DHT22;25200;53.394;10.414;2022-09-01T12:10:44;26.90;47.60
39519;DHT22;25200;53.394;10.414;2022-09-01T12:15:40;27.80;48.40
39519;DHT22;25200;53.394;10.414;2022-09-01T12:18:20;28.00;47.80
39519;DHT22;25200;53.394;10.414;2022-09-01T12:20:48;28.00;46.60
39519;DHT22;25200;53.394;10.414;2022-09-01T12:25:55;27.60;45.20
39519;DHT22;25200;53.394;10.414;2022-09-01T12:28:27;27.70;46.50
39519;DHT22;25200;53.394;10.414;2022-09-01T12:30:57;27.70;45.70
39519;DHT22;25200;53.394;10.414;2022-09-01T12:33:25;27.60;45.80
39519;DHT22;25200;53.394;10.414;2022-09-01T12:35:51;27.50;45.50
39519;DHT22;25200;53.394;10.414;2022-09-01T12:38:35;27.30;45.40
39519;DHT22;25200;53.394;10.414;2022-09-01T12:41:01;27.10;45.50
39519;DHT22;25200;53.394;10.414;2022-09-01T12:43:35;27.00;45.90
39519;DHT22;25200;53.394;10.414;2022-09-01T12:46:02;26.90;45.80
39519;DHT22;25200;53.394;10.414;2022-09-01T12:48:34;26.90;45.90
39519;DHT22;25200;53.394;10.414;2022-09-01T12:51:14;26.90;46.90
39519;DHT22;25200;53.394;10.414;2022-09-01T12:53:56;26.90;46.50
39519;DHT22;25200;53.394;10.414;2022-09-01T12:56:34;26.90;47.10
39519;DHT22;25200;53.394;10.414;2022-09-01T12:59:13;27.10;47.40
39519;DHT22;25200;53.394;10.414;2022-09-01T13:01:41;27.10;45.50
39519;DHT22;25200;53.394;10.414;2022-09-01T13:04:12;27.10;45.90
39519;DHT22;25200;53.394;10.414;2022-09-01T13:06:38;27.30;46.60
39519;DHT22;25200;53.394;10.414;2022-09-01T13:09:05;27.60;47.70
39519;DHT22;25200;53.394;10.414;2022-09-01T13:11:31;28.00;47.10
39519;DHT22;25200;53.394;10.414;2022-09-01T13:13:57;28.50;46.90
39519;DHT22;25200;53.394;10.414;2022-09-01T13:16:23;28.90;47.60
39519;DHT22;25200;53.394;10.414;2022-09-01T13:18:48;29.00;46.00
39519;DHT22;25200;53.394;10.414;2022-09-01T13:21:14;28.90;46.20
39519;DHT22;25200;53.394;10.414;2022-09-01T13:23:40;28.70;46.00
39519;DHT22;25200;53.394;10.414;2022-09-01T13:26:06;28.50;45.60
39519;DHT22;25200;53.394;10.414;2022-09-01T13:28:32;28.30;46.30
39519;DHT22;25200;53.394;10.414;2022-09-01T13:31:02;28.10;45.80
39519;DHT22;25200;53.394;10.414;2022-09-01T13:33:32;27.90;46.20
39519;DHT22;25200;53.394;10.414;2022-09-01T13:35:59;27.70;45.80
39519;DHT22;25200;53.394;10.414;2022-09-01T13:38:24;27.50;45.40
39519;DHT22;25200;53.394;10.414;2022-09-01T13:40:50;27.40;45.90
39519;DHT22;25200;53.394;10.414;2022-09-01T13:43:19;27.60;46.30
39519;DHT22;25200;53.394;10.414;2022-09-01T13:45:45;27.80;46.50
39519;DHT22;25200;53.394;10.414;2022-09-01T13:48:12;28.00;46.90
39519;DHT22;25200;53.394;10.414;2022-09-01T13:50:38;28.30;46.60
39519;DHT22;25200;53.394;10.414;2022-09-01T13:53:04;28.50;46.60
39519;DHT22;25200;53.394;10.414;2022-09-01T13:55:34;28.60;46.40
39519;DHT22;25200;53.394;10.414;2022-09-01T13:58:00;28.90;47.00
39519;DHT22;25200;53.394;10.414;2022-09-01T14:00:38;29.30;47.20
39519;DHT22;25200;53.394;10.414;2022-09-01T14:03:15;29.70;46.90
39519;DHT22;25200;53.394;10.414;2022-09-01T14:05:44;29.90;47.20
39519;DHT22;25200;53.394;10.414;2022-09-01T14:08:12;30.10;47.30
39519;DHT22;25200;53.394;10.414;2022-09-01T14:10:42;30.20;47.50
39519;DHT22;25200;53.394;10.414;2022-09-01T14:13:09;30.30;47.50
39519;DHT22;25200;53.394;10.414;2022-09-01T14:15:35;30.30;47.20
39519;DHT22;25200;53.394;10.414;2022-09-01T14:18:02;30.30;47.00
39519;DHT22;25200;53.394;10.414;2022-09-01T14:20:32;30.30;47.30
39519;DHT22;25200;53.394;10.414;2022-09-01T14:23:04;30.20;45.50
39519;DHT22;25200;53.394;10.414;2022-09-01T14:25:31;30.20;45.80
39519;DHT22;25200;53.394;10.414;2022-09-01T14:27:58;30.30;47.40
39519;DHT22;25200;53.394;10.414;2022-09-01T14:30:26;30.30;46.80
39519;DHT22;25200;53.394;10.414;2022-09-01T14:32:52;30.30;46.20
39519;DHT22;25200;53.394;10.414;2022-09-01T14:35:20;30.30;45.90
39519;DHT22;25200;53.394;10.414;2022-09-01T14:37:49;30.40;46.20
39519;DHT22;25200;53.394;10.414;2022-09-01T14:40:15;30.40;45.40
39519;DHT22;25200;53.394;10.414;2022-09-01T14:42:42;30.30;45.00
39519;DHT22;25200;53.394;10.414;2022-09-01T14:45:11;30.20;45.10
39519;DHT22;25200;53.394;10.414;2022-09-01T14:47:37;30.20;45.90
39519;DHT22;25200;53.394;10.414;2022-09-01T14:50:04;30.10;45.40
39519;DHT22;25200;53.394;10.414;2022-09-01T14:52:32;29.90;45.60
39519;DHT22;25200;53.394;10.414;2022-09-01T14:54:57;29.90;45.50
39519;DHT22;25200;53.394;10.414;2022-09-01T14:57:23;29.80;45.70
39519;DHT22;25200;53.394;10.414;2022-09-01T14:59:49;29.60;44.80
39519;DHT22;25200;53.394;10.414;2022-09-01T15:02:14;29.40;45.00
39519;DHT22;25200;53.394;10.414;2022-09-01T15:04:40;29.20;44.50
39519;DHT22;25200;53.394;10.414;2022-09-01T15:07:07;28.90;44.80
39519;DHT22;25200;53.394;10.414;2022-09-01T15:09:32;28.70;45.30
39519;DHT22;25200;53.394;10.414;2022-09-01T15:11:59;28.50;45.10
39519;DHT22;25200;53.394;10.414;2022-09-01T15:14:24;28.30;45.50
39519;DHT22;25200;53.394;10.414;2022-09-01T15:16:50;28.10;45.40
39519;DHT22;25200;53.394;10.414;2022-09-01T15:19:16;27.80;45.30
39519;DHT22;25200;53.394;10.414;2022-09-01T15:21:44;27.50;45.30
39519;DHT22;25200;53.394;10.414;2022-09-01T15:24:11;27.10;45.30
39519;DHT22;25200;53.394;10.414;2022-09-01T15:26:37;26.80;45.30
39519;DHT22;25200;53.394;10.414;2022-09-01T15:29:05;26.60;45.70
39519;DHT22;25200;53.394;10.414;2022-09-01T15:31:32;26.40;45.90
39519;DHT22;25200;53.394;10.414;2022-09-01T15:34:00;26.20;46.10
39519;DHT22;25200;53.394;10.414;2022-09-01T15:36:27;26.00;46.20
39519;DHT22;25200;53.394;10.414;2022-09-01T15:38:54;25.90;46.40
39519;DHT22;25200;53.394;10.414;2022-09-01T15:41:22;25.90;46.60
39519;DHT22;25200;53.394;10.414;2022-09-01T15:43:49;25.90;46.30
39519;DHT22;25200;53.394;10.414;2022-09-01T15:46:15;25.80;46.40
39519;DHT22;25200;53.394;10.414;2022-09-01T15:48:41;25.80;46.30
39519;DHT22;25200;53.394;10.414;2022-09-01T15:53:49;25.70;45.30
39519;DHT22;25200;53.394;10.414;2022-09-01T15:56:15;25.50;45.40
39519;DHT22;25200;53.394;10.414;2022-09-01T15:58:45;25.40;45.60
39519;DHT22;25200;53.394;10.414;2022-09-01T16:01:11;25.30;45.80
39519;DHT22;25200;53.394;10.414;2022-09-01T16:03:37;25.10;45.70
39519;DHT22;25200;53.394;10.414;2022-09-01T16:06:04;25.00;46.00
39519;DHT22;25200;53.394;10.414;2022-09-01T16:08:31;24.90;46.00
39519;DHT22;25200;53.394;10.414;2022-09-01T16:10:57;24.70;46.20
39519;DHT22;25200;53.394;10.414;2022-09-01T16:13:22;24.60;46.20
39519;DHT22;25200;53.394;10.414;2022-09-01T16:24:13;24.20;46.60
39519;DHT22;25200;53.394;10.414;2022-09-01T16:26:40;24.10;46.80
39519;DHT22;25200;53.394;10.414;2022-09-01T16:29:13;24.00;46.80
39519;DHT22;25200;53.394;10.414;2022-09-01T16:31:42;23.90;46.70
39519;DHT22;25200;53.394;10.414;2022-09-01T16:34:14;23.80;46.70
39519;DHT22;25200;53.394;10.414;2022-09-01T16:37:09;23.70;46.70
39519;DHT22;25200;53.394;10.414;2022-09-01T16:47:51;23.30;46.90
39519;DHT22;25200;53.394;10.414;2022-09-01T16:50:35;23.20;46.90
39519;DHT22;25200;53.394;10.414;2022-09-01T16:53:32;23.20;47.10